Terminal Aerodrome Forecast
Issued by NWS

Home | Current Version | Previous Version | Text Only | Print | Product List | Glossary On
Versions: 1 2 3 4 5 6 7 8 9 10 11 12 13
000
FTUS46 KSEW 080520
TAFPAE
TAF
KPAE 080520Z 0806/0906 01005KT P6SM FEW035 BKN070
     FM080800 VRB03KT P6SM SCT050 SCT080 OVC200
     FM081100 VRB03KT 3SM BR SCT003 BKN200
     FM082000 VRB03KT P6SM BKN250=

USA.gov is the U.S. government's official web portal to all federal, state and local government web resources and services.